createdAt,value
2019-05-09T00:00:13.587Z,12.40
2019-05-09T00:02:44.681Z,12.40
2019-05-09T00:05:15.675Z,12.40
2019-05-09T00:07:46.496Z,12.40
2019-05-09T00:10:16.643Z,12.30
2019-05-09T00:12:48.499Z,12.30
2019-05-09T00:15:19.662Z,12.30
2019-05-09T00:17:53.357Z,12.30
2019-05-09T00:20:29.390Z,12.30
2019-05-09T00:23:00.446Z,12.30
2019-05-09T00:25:34.991Z,12.30
2019-05-09T00:28:08.845Z,12.20
2019-05-09T00:30:56.818Z,12.20
2019-05-09T00:33:29.740Z,12.20
2019-05-09T00:36:00.674Z,12.20
2019-05-09T00:38:35.849Z,12.20
2019-05-09T00:41:06.287Z,12.20
2019-05-09T00:43:39.428Z,12.20
2019-05-09T00:46:10.834Z,12.20
2019-05-09T00:48:46.435Z,12.20
2019-05-09T00:51:17.440Z,12.20
2019-05-09T00:53:48.423Z,12.20
2019-05-09T00:59:14.308Z,12.20
2019-05-09T01:01:44.203Z,12.20
2019-05-09T01:04:16.525Z,12.20
2019-05-09T01:06:46.433Z,12.20
2019-05-09T01:09:19.831Z,12.30
2019-05-09T01:11:49.603Z,12.30
2019-05-09T01:14:23.489Z,12.30
2019-05-09T01:16:56.062Z,12.30
2019-05-09T01:19:25.870Z,12.30
2019-05-09T01:21:56.741Z,12.30
2019-05-09T01:24:30.078Z,12.30
2019-05-09T01:27:03.662Z,12.40
2019-05-09T01:29:36.038Z,12.40
2019-05-09T01:32:14.273Z,12.50
2019-05-09T01:34:46.170Z,12.50
2019-05-09T01:37:18.548Z,12.50
2019-05-09T01:39:50.813Z,12.50
2019-05-09T01:42:25.291Z,12.50
2019-05-09T01:44:56.481Z,12.50
2019-05-09T01:47:27.416Z,12.50
2019-05-09T01:49:58.441Z,12.50
2019-05-09T01:52:29.391Z,12.50
2019-05-09T01:54:59.252Z,12.50
2019-05-09T01:57:30.250Z,12.50
2019-05-09T02:00:01.078Z,12.50
2019-05-09T02:02:33.844Z,12.50
2019-05-09T02:05:06.361Z,12.50
2019-05-09T02:07:37.376Z,12.50
2019-05-09T02:10:08.071Z,12.50
2019-05-09T02:12:37.899Z,12.50
2019-05-09T02:15:27.371Z,12.50
2019-05-09T02:18:04.292Z,12.40
2019-05-09T02:20:33.777Z,12.30
2019-05-09T02:23:06.020Z,12.30
2019-05-09T02:25:40.072Z,12.20
2019-05-09T02:28:14.164Z,12.20
2019-05-09T02:30:44.995Z,12.20
2019-05-09T02:33:16.266Z,12.10
2019-05-09T02:35:56.800Z,12.10
2019-05-09T02:38:21.385Z,12.00
2019-05-09T02:40:52.376Z,11.90
2019-05-09T02:43:23.467Z,11.90
2019-05-09T02:45:59.548Z,11.80
2019-05-09T02:48:29.267Z,11.80
2019-05-09T02:51:00.604Z,11.70
2019-05-09T02:53:32.874Z,11.60
2019-05-09T02:56:02.554Z,11.50
2019-05-09T02:58:35.189Z,11.40
2019-05-09T03:01:22.181Z,11.40
2019-05-09T03:03:55.400Z,11.40
2019-05-09T03:06:28.457Z,11.40
2019-05-09T03:09:00.808Z,11.30
2019-05-09T03:11:35.181Z,11.20
2019-05-09T03:14:09.067Z,11.20
2019-05-09T03:16:40.150Z,11.20
2019-05-09T03:19:11.040Z,11.20
2019-05-09T03:21:43.507Z,11.20
2019-05-09T03:24:18.493Z,11.30
2019-05-09T03:26:54.631Z,11.20
2019-05-09T03:29:32.988Z,11.20
2019-05-09T03:32:02.839Z,11.20
2019-05-09T03:34:37.336Z,11.30
2019-05-09T03:37:08.593Z,11.30
2019-05-09T03:39:39.605Z,11.20
2019-05-09T03:42:12.230Z,11.30
2019-05-09T03:44:43.857Z,11.30
2019-05-09T03:47:18.945Z,11.30
2019-05-09T03:49:50.344Z,11.40
2019-05-09T03:52:21.479Z,11.40
2019-05-09T03:54:51.369Z,11.40
2019-05-09T03:57:23.794Z,11.50
2019-05-09T03:59:58.231Z,11.50
2019-05-09T04:02:29.111Z,11.50
2019-05-09T04:04:59.794Z,11.40
2019-05-09T04:07:32.059Z,11.40
2019-05-09T04:10:03.066Z,11.40
2019-05-09T04:12:34.936Z,11.40
2019-05-09T04:15:08.381Z,11.30
2019-05-09T04:17:47.569Z,11.30
2019-05-09T04:20:17.791Z,11.30
2019-05-09T04:22:49.214Z,11.30
2019-05-09T04:25:23.988Z,11.30
2019-05-09T04:27:58.314Z,11.30
2019-05-09T04:30:30.876Z,11.20
2019-05-09T04:33:00.725Z,11.20
2019-05-09T04:35:33.059Z,11.20
2019-05-09T04:38:03.972Z,11.20
2019-05-09T04:40:39.712Z,11.20
2019-05-09T04:43:18.347Z,11.20
2019-05-09T04:45:47.310Z,11.20
2019-05-09T04:48:34.060Z,11.10
2019-05-09T04:51:09.115Z,11.20
2019-05-09T04:53:40.246Z,11.20
2019-05-09T04:56:23.517Z,11.20
2019-05-09T04:58:53.381Z,11.20
2019-05-09T05:01:32.516Z,11.20
2019-05-09T05:04:04.717Z,11.20
2019-05-09T05:06:40.352Z,11.10
2019-05-09T05:09:10.240Z,11.20
2019-05-09T05:11:41.455Z,11.20
2019-05-09T05:14:17.583Z,11.20
2019-05-09T05:16:53.236Z,11.20
2019-05-09T05:19:22.395Z,11.20
2019-05-09T05:21:53.381Z,11.10
2019-05-09T05:24:31.485Z,11.10
2019-05-09T05:27:08.280Z,11.10
2019-05-09T05:29:38.583Z,11.10
2019-05-09T05:32:09.584Z,11.00
2019-05-09T05:34:44.778Z,10.90
2019-05-09T05:37:17.640Z,10.90
2019-05-09T05:39:49.672Z,10.90
2019-05-09T05:42:22.313Z,10.90
2019-05-09T05:44:51.749Z,10.80
2019-05-09T05:47:29.251Z,10.80
2019-05-09T05:50:01.861Z,10.70
2019-05-09T05:52:31.880Z,10.70
2019-05-09T05:55:00.900Z,10.70
2019-05-09T05:57:30.802Z,10.70
2019-05-09T06:00:03.062Z,10.60
2019-05-09T06:02:34.058Z,10.70
2019-05-09T06:05:04.867Z,10.60
2019-05-09T06:07:34.689Z,10.50
2019-05-09T06:10:08.503Z,10.50
2019-05-09T06:12:40.934Z,10.50
2019-05-09T06:15:10.528Z,10.40
2019-05-09T06:17:41.577Z,10.30
2019-05-09T06:20:12.953Z,10.30
2019-05-09T06:22:43.782Z,10.30
2019-05-09T06:25:20.157Z,10.30
2019-05-09T06:27:49.344Z,10.30
2019-05-09T06:30:29.286Z,10.20
2019-05-09T06:33:00.416Z,10.10
2019-05-09T06:35:33.349Z,10.10
2019-05-09T06:38:08.398Z,10.10
2019-05-09T06:40:40.800Z,10.10
2019-05-09T06:43:29.092Z,10.10
2019-05-09T06:46:04.638Z,10.10
2019-05-09T06:48:37.645Z,10.10
2019-05-09T06:51:08.419Z,10.10
2019-05-09T06:53:40.811Z,10.10
2019-05-09T06:56:12.177Z,10.10
2019-05-09T06:58:43.342Z,10.10
2019-05-09T07:01:25.272Z,10.00
2019-05-09T07:04:03.466Z,10.00
2019-05-09T07:06:38.688Z,10.00
2019-05-09T07:09:12.086Z,10.10
2019-05-09T07:11:44.426Z,10.00
2019-05-09T07:14:33.296Z,10.00
2019-05-09T07:17:02.105Z,10.00
2019-05-09T07:19:33.637Z,10.00
2019-05-09T07:22:14.243Z,9.90
2019-05-09T07:25:06.071Z,10.00
2019-05-09T07:27:33.044Z,9.90
2019-05-09T07:30:21.524Z,9.90
2019-05-09T07:41:17.792Z,9.90
2019-05-09T07:43:48.292Z,10.00
2019-05-09T07:46:29.544Z,10.00
2019-05-09T07:49:03.455Z,10.00
2019-05-09T07:51:37.237Z,10.00
2019-05-09T07:54:21.140Z,10.00
2019-05-09T07:56:42.385Z,10.00
2019-05-09T07:59:17.948Z,9.90
2019-05-09T08:01:48.854Z,9.90
2019-05-09T08:04:21.416Z,9.90
2019-05-09T08:06:57.743Z,9.90
2019-05-09T08:09:28.882Z,9.90
2019-05-09T08:11:59.300Z,9.90
2019-05-09T08:14:33.017Z,9.90
2019-05-09T08:17:04.139Z,9.90
2019-05-09T08:19:38.045Z,9.90
2019-05-09T08:22:09.005Z,10.00
2019-05-09T08:24:41.216Z,10.00
2019-05-09T08:27:12.590Z,10.00
2019-05-09T08:29:47.958Z,10.00
2019-05-09T08:32:21.542Z,10.00
2019-05-09T08:34:53.030Z,10.00
2019-05-09T08:37:23.032Z,10.10
2019-05-09T08:39:57.790Z,10.10
2019-05-09T08:42:30.403Z,10.10
2019-05-09T08:45:02.858Z,10.10
2019-05-09T08:47:34.009Z,10.20
2019-05-09T08:50:07.821Z,10.20
2019-05-09T08:52:37.631Z,10.20
2019-05-09T08:55:10.652Z,10.30
2019-05-09T08:57:42.069Z,10.30
2019-05-09T09:00:12.646Z,10.30
2019-05-09T09:02:48.251Z,10.30
2019-05-09T09:05:18.895Z,10.40
2019-05-09T09:07:52.074Z,10.40
2019-05-09T09:10:23.313Z,10.50
2019-05-09T09:12:58.036Z,10.50
2019-05-09T09:15:55.943Z,10.50
2019-05-09T09:18:03.111Z,10.60
2019-05-09T09:20:38.737Z,10.50
2019-05-09T09:23:13.124Z,10.50
2019-05-09T09:25:48.758Z,10.50
2019-05-09T09:28:18.456Z,10.40
2019-05-09T09:30:51.453Z,10.30
2019-05-09T09:33:23.768Z,10.30
2019-05-09T09:35:57.981Z,10.20
2019-05-09T09:38:29.853Z,10.20
2019-05-09T09:41:00.596Z,10.20
2019-05-09T09:43:31.381Z,10.20
2019-05-09T09:46:10.476Z,10.30
2019-05-09T09:48:35.463Z,10.30
2019-05-09T09:51:08.792Z,10.40
2019-05-09T09:53:39.794Z,10.50
2019-05-09T09:56:12.267Z,10.50
2019-05-09T09:58:43.257Z,10.60
2019-05-09T10:01:14.235Z,10.70
2019-05-09T10:03:47.394Z,10.70
2019-05-09T10:06:19.813Z,10.60
2019-05-09T10:08:54.321Z,10.60
2019-05-09T10:11:28.563Z,10.60
2019-05-09T10:13:58.954Z,10.70
2019-05-09T10:16:39.691Z,10.70
2019-05-09T10:19:18.514Z,10.70
2019-05-09T10:21:53.892Z,10.70
2019-05-09T10:24:28.175Z,10.70
2019-05-09T10:27:09.242Z,10.70
2019-05-09T10:29:43.624Z,10.70
2019-05-09T10:32:14.272Z,10.70
2019-05-09T10:34:48.846Z,10.70
2019-05-09T10:37:24.146Z,10.80
2019-05-09T10:39:58.079Z,10.90
2019-05-09T10:42:37.911Z,11.00
2019-05-09T10:45:10.021Z,11.10
2019-05-09T10:47:40.546Z,11.20
2019-05-09T10:50:11.956Z,11.30
2019-05-09T10:52:43.280Z,11.50
2019-05-09T10:55:14.370Z,11.70
2019-05-09T10:57:51.288Z,11.90
2019-05-09T11:00:19.945Z,12.10
2019-05-09T11:02:53.880Z,12.20
2019-05-09T11:05:24.149Z,12.30
2019-05-09T11:07:58.814Z,12.50
2019-05-09T11:10:32.359Z,12.80
2019-05-09T11:13:02.415Z,13.00
2019-05-09T11:18:07.929Z,13.30
2019-05-09T11:20:44.653Z,13.30
2019-05-09T11:23:19.337Z,13.20
2019-05-09T11:25:52.517Z,13.20
2019-05-09T11:28:25.123Z,13.20
2019-05-09T11:30:59.615Z,13.20
2019-05-09T11:33:29.678Z,13.10
2019-05-09T11:36:09.470Z,13.10
2019-05-09T11:38:43.669Z,13.10
2019-05-09T11:41:18.293Z,13.10
2019-05-09T11:43:49.520Z,13.10
2019-05-09T11:46:20.342Z,12.90
2019-05-09T11:48:53.563Z,12.90
2019-05-09T11:51:24.632Z,12.90
2019-05-09T11:53:54.231Z,12.90
2019-05-09T11:56:26.593Z,12.80
2019-05-09T11:58:57.875Z,12.80
2019-05-09T12:01:29.460Z,12.80
2019-05-09T12:03:59.549Z,12.80
2019-05-09T12:06:31.961Z,12.90
2019-05-09T12:09:05.183Z,12.80
2019-05-09T12:11:41.322Z,12.80
2019-05-09T12:14:09.096Z,12.80
2019-05-09T12:16:40.347Z,12.90
2019-05-09T12:19:09.649Z,12.90
2019-05-09T12:21:47.902Z,13.10
2019-05-09T12:24:14.933Z,13.00
2019-05-09T12:26:48.276Z,13.00
2019-05-09T12:29:21.509Z,13.10
2019-05-09T12:31:56.058Z,13.20
2019-05-09T12:34:27.670Z,13.30
2019-05-09T12:36:58.627Z,13.40
2019-05-09T12:39:31.107Z,13.60
2019-05-09T12:42:02.902Z,13.80
2019-05-09T12:44:34.052Z,14.00
2019-05-09T12:47:04.209Z,14.00
2019-05-09T12:49:35.636Z,14.30
2019-05-09T12:52:08.219Z,14.50
2019-05-09T12:54:41.959Z,14.60
2019-05-09T12:57:19.312Z,14.70
2019-05-09T12:59:52.368Z,14.70
2019-05-09T13:02:19.856Z,14.80
2019-05-09T13:04:53.991Z,14.80
2019-05-09T13:07:29.744Z,14.80
2019-05-09T13:10:03.393Z,14.70
2019-05-09T13:12:38.882Z,14.80
2019-05-09T13:15:10.785Z,14.80
2019-05-09T13:17:43.478Z,14.70
2019-05-09T13:20:18.182Z,14.70
2019-05-09T13:22:51.923Z,14.60
2019-05-09T13:25:24.203Z,14.60
2019-05-09T13:27:54.045Z,14.60
2019-05-09T13:30:24.264Z,14.60
2019-05-09T13:32:56.617Z,14.60
2019-05-09T13:35:28.143Z,14.60
2019-05-09T13:37:59.842Z,14.50
2019-05-09T13:40:31.547Z,14.50
2019-05-09T13:43:04.476Z,14.40
2019-05-09T13:45:36.870Z,14.30
2019-05-09T13:48:27.203Z,14.20
2019-05-09T13:50:47.903Z,14.20
2019-05-09T13:53:22.099Z,14.20
2019-05-09T13:55:52.843Z,14.10
2019-05-09T13:58:25.518Z,14.10
2019-05-09T14:01:02.199Z,14.00
2019-05-09T14:03:30.999Z,14.00
2019-05-09T14:06:02.361Z,14.00
2019-05-09T14:08:33.610Z,14.00
2019-05-09T14:11:04.858Z,14.10
2019-05-09T14:13:38.610Z,14.00
2019-05-09T14:16:19.443Z,14.00
2019-05-09T14:18:44.514Z,13.90
2019-05-09T14:21:23.733Z,13.80
2019-05-09T14:24:07.006Z,13.70
2019-05-09T14:26:27.822Z,13.60
2019-05-09T14:28:59.340Z,13.50
2019-05-09T14:31:33.439Z,13.50
2019-05-09T14:34:04.543Z,13.50
2019-05-09T14:36:42.003Z,13.40
2019-05-09T14:39:13.935Z,13.40
2019-05-09T14:41:47.268Z,13.40
2019-05-09T14:44:19.511Z,13.40
2019-05-09T14:46:50.114Z,13.40
2019-05-09T14:49:21.048Z,13.50
2019-05-09T14:51:50.966Z,13.50
2019-05-09T14:54:21.736Z,13.50
2019-05-09T14:56:58.170Z,13.50
2019-05-09T14:59:29.830Z,13.60
2019-05-09T15:02:04.388Z,13.70
2019-05-09T15:04:38.707Z,13.80
2019-05-09T15:07:13.153Z,13.80
2019-05-09T15:09:46.163Z,13.80
2019-05-09T15:12:18.670Z,13.70
2019-05-09T15:14:48.836Z,13.70
2019-05-09T15:17:21.636Z,13.70
2019-05-09T15:19:59.570Z,13.80
2019-05-09T15:22:28.549Z,13.80
2019-05-09T15:24:59.958Z,13.90
2019-05-09T15:27:31.444Z,13.90
2019-05-09T15:30:02.586Z,13.90
2019-05-09T15:32:37.511Z,13.90
2019-05-09T15:35:08.993Z,13.90
2019-05-09T15:37:43.247Z,14.00
2019-05-09T15:40:17.718Z,14.00
2019-05-09T15:42:49.413Z,13.90
2019-05-09T15:45:21.714Z,13.90
2019-05-09T15:47:58.288Z,13.90
2019-05-09T15:50:29.419Z,13.80
2019-05-09T15:53:01.614Z,13.80
2019-05-09T15:55:36.072Z,13.70
2019-05-09T15:58:09.644Z,13.70
2019-05-09T16:00:41.964Z,13.70
2019-05-09T16:03:14.649Z,13.60
2019-05-09T16:05:47.885Z,13.60
2019-05-09T16:08:19.922Z,13.60
2019-05-09T16:10:51.257Z,13.50
2019-05-09T16:13:21.152Z,13.40
2019-05-09T16:15:57.217Z,13.50
2019-05-09T16:18:30.015Z,13.50
2019-05-09T16:21:04.229Z,13.30
2019-05-09T16:23:37.919Z,13.30
2019-05-09T16:26:11.799Z,13.30
2019-05-09T16:28:44.573Z,13.30
2019-05-09T16:31:15.335Z,13.30
2019-05-09T16:36:20.032Z,13.20
2019-05-09T16:38:58.205Z,13.10
2019-05-09T16:41:32.075Z,13.10
2019-05-09T16:44:07.849Z,13.10
2019-05-09T16:46:41.497Z,13.10
2019-05-09T16:49:16.764Z,13.20
2019-05-09T16:51:48.599Z,13.10
2019-05-09T16:54:22.682Z,13.10
2019-05-09T16:56:57.450Z,13.10
2019-05-09T16:59:38.798Z,13.00
2019-05-09T17:04:57.754Z,13.10
2019-05-09T17:07:38.528Z,13.00
2019-05-09T17:10:10.957Z,13.00
2019-05-09T17:12:43.341Z,12.90
2019-05-09T17:18:18.638Z,12.80
2019-05-09T17:20:49.128Z,12.80
2019-05-09T17:23:22.461Z,12.70
2019-05-09T17:25:59.861Z,12.70
2019-05-09T17:28:34.322Z,12.70
2019-05-09T17:31:07.943Z,12.70
2019-05-09T17:33:39.889Z,12.70
2019-05-09T17:36:10.946Z,12.70
2019-05-09T17:38:43.214Z,12.70
2019-05-09T17:41:14.646Z,12.70
2019-05-09T17:46:24.122Z,12.70
2019-05-09T17:48:54.868Z,12.70
2019-05-09T17:51:35.671Z,12.70
2019-05-09T17:54:01.114Z,12.80
2019-05-09T17:59:04.012Z,12.70
2019-05-09T18:01:40.428Z,12.70
2019-05-09T18:04:12.937Z,12.60
2019-05-09T18:09:28.580Z,12.60
2019-05-09T18:12:00.231Z,12.60
2019-05-09T18:14:30.408Z,12.60
2019-05-09T18:17:03.053Z,12.50
2019-05-09T18:19:38.167Z,12.50
2019-05-09T18:22:08.354Z,12.50
2019-05-09T18:24:42.258Z,12.50
2019-05-09T18:27:14.323Z,12.50
2019-05-09T18:29:47.579Z,12.50
2019-05-09T18:32:38.324Z,12.50
2019-05-09T18:35:10.837Z,12.40
2019-05-09T18:38:02.727Z,12.30
2019-05-09T18:40:32.850Z,12.30
2019-05-09T18:45:33.569Z,12.20
2019-05-09T18:48:04.545Z,12.10
2019-05-09T18:50:38.434Z,12.10
2019-05-09T18:53:10.092Z,12.00
2019-05-09T18:55:43.694Z,12.00
2019-05-09T18:58:15.206Z,11.90
2019-05-09T19:00:46.639Z,11.90
2019-05-09T19:03:18.311Z,11.90
2019-05-09T19:05:50.191Z,11.80
2019-05-09T19:08:21.533Z,11.80
2019-05-09T19:10:52.823Z,11.80
2019-05-09T19:15:58.439Z,11.70
2019-05-09T19:18:33.930Z,11.70
2019-05-09T19:21:07.899Z,11.60
2019-05-09T19:23:39.545Z,11.60
2019-05-09T19:26:38.832Z,11.60
2019-05-09T19:29:11.431Z,11.50
2019-05-09T19:31:43.026Z,11.50
2019-05-09T19:34:15.591Z,11.50
2019-05-09T19:36:45.978Z,11.40
2019-05-09T19:39:16.130Z,11.40
2019-05-09T19:41:47.737Z,11.40
2019-05-09T19:44:17.887Z,11.40
2019-05-09T19:46:51.120Z,11.40
2019-05-09T19:49:23.865Z,11.40
2019-05-09T19:51:55.523Z,11.30
2019-05-09T19:54:25.664Z,11.30
2019-05-09T19:56:56.571Z,11.20
2019-05-09T19:59:29.157Z,11.20
2019-05-09T20:01:59.911Z,11.20
2019-05-09T20:04:31.214Z,11.10
2019-05-09T20:09:52.973Z,11.10
2019-05-09T20:12:25.803Z,11.00
2019-05-09T20:14:57.624Z,11.00
2019-05-09T20:17:29.381Z,10.90
2019-05-09T20:20:02.284Z,10.90
2019-05-09T20:22:33.714Z,10.90
2019-05-09T20:25:04.771Z,10.80
2019-05-09T20:27:35.728Z,10.80
2019-05-09T20:30:08.402Z,10.80
2019-05-09T20:32:39.629Z,10.70
2019-05-09T20:35:11.207Z,10.70
2019-05-09T20:37:42.519Z,10.70
2019-05-09T20:40:12.814Z,10.70
2019-05-09T20:42:45.548Z,10.70
2019-05-09T20:45:17.298Z,10.70
2019-05-09T20:47:46.651Z,10.70
2019-05-09T20:50:17.901Z,10.70
2019-05-09T20:52:48.963Z,10.70
2019-05-09T20:55:20.321Z,10.70
2019-05-09T20:57:52.039Z,10.70
2019-05-09T21:00:27.173Z,10.70
2019-05-09T21:02:59.364Z,10.60
2019-05-09T21:05:31.033Z,10.60
2019-05-09T21:08:02.496Z,10.60
2019-05-09T21:13:24.891Z,10.60
2019-05-09T21:15:56.032Z,10.50
2019-05-09T21:18:25.934Z,10.50
2019-05-09T21:21:01.226Z,10.50
2019-05-09T21:23:32.395Z,10.50
2019-05-09T21:26:02.550Z,10.50
2019-05-09T21:28:34.647Z,10.40
2019-05-09T21:31:09.966Z,10.40
2019-05-09T21:33:41.710Z,10.40
2019-05-09T21:36:11.707Z,10.30
2019-05-09T21:38:46.195Z,10.40
2019-05-09T21:44:18.136Z,10.30
2019-05-09T21:46:51.215Z,10.30
2019-05-09T21:49:24.813Z,10.20
2019-05-09T21:51:54.637Z,10.20
2019-05-09T21:54:28.016Z,10.20
2019-05-09T21:56:58.807Z,10.10
2019-05-09T21:59:28.035Z,10.10
2019-05-09T22:01:59.395Z,10.00
2019-05-09T22:04:34.908Z,10.00
2019-05-09T22:07:07.958Z,10.10
2019-05-09T22:09:37.935Z,10.00
2019-05-09T22:12:11.650Z,9.90
2019-05-09T22:14:42.759Z,9.90
2019-05-09T22:17:23.551Z,9.90
2019-05-09T22:19:53.466Z,9.80
2019-05-09T22:22:23.505Z,9.70
2019-05-09T22:24:59.938Z,9.70
2019-05-09T22:27:32.756Z,9.60
2019-05-09T22:30:06.089Z,9.50
2019-05-09T22:32:36.189Z,9.40
2019-05-09T22:37:39.208Z,9.40
2019-05-09T22:40:10.929Z,9.40
2019-05-09T22:42:42.288Z,9.40
2019-05-09T22:45:12.642Z,9.40
2019-05-09T22:47:43.749Z,9.30
2019-05-09T22:50:14.542Z,9.30
2019-05-09T22:52:44.552Z,9.30
2019-05-09T22:55:17.812Z,9.30
2019-05-09T22:57:51.628Z,9.30
2019-05-09T23:00:22.888Z,9.20
2019-05-09T23:02:53.909Z,9.20
2019-05-09T23:05:24.257Z,9.10
2019-05-09T23:07:55.251Z,9.10
2019-05-09T23:10:25.231Z,9.00
2019-05-09T23:12:56.580Z,9.00
2019-05-09T23:15:26.471Z,9.00
2019-05-09T23:17:57.822Z,8.90
2019-05-09T23:20:28.308Z,8.90
2019-05-09T23:22:58.450Z,8.90
2019-05-09T23:25:29.994Z,8.90
2019-05-09T23:28:01.215Z,8.90
2019-05-09T23:30:36.924Z,8.90
2019-05-09T23:33:10.228Z,8.80
2019-05-09T23:35:42.880Z,8.80
2019-05-09T23:38:14.332Z,8.70
2019-05-09T23:40:45.675Z,8.60
2019-05-09T23:43:14.587Z,8.60
2019-05-09T23:45:47.128Z,8.60
2019-05-09T23:48:20.521Z,8.50
2019-05-09T23:50:51.703Z,8.50
2019-05-09T23:53:26.222Z,8.50
2019-05-09T23:56:17.396Z,8.50
2019-05-09T23:59:06.388Z,8.50
